• Join FlightAware (Why Join?)
  • Login
  • US Flag 
03:54AM EDT


 

Airport Tracker/Info


-or-


 

Live Flight TrackerFlight Track Log ✈ VH-LHH ✈ 22-Jun-2013 ✈ YPDN / DRW - YTST

Flight Track Log - Related Links

Times and Time Zones

All times are in EDT time to prevent confusion due to time zone crossing. See the VH-LHH flight status page for this flight to view local times or setup timezone preferences in your user account.

Time Position Orientation Groundspeed Altitude Reporting Facility
EDT Latitude Longitude Course Direction KTS MPH feet Rate Location/Type
11:42PM -12.4272 130.9026 142° Southeast 88 101 1,000  Level Aus ATC (RADAR)
11:43PM -12.4471 130.9187 142° Southeast 96 110 1,800 780 Climbing Aus ATC (RADAR)
11:44PM -12.4678 130.9333 145° Southeast 90 104 2,500 720 Climbing Aus ATC (RADAR)
11:45PM -12.4814 130.9415 150° Southeast 93 107 2,900 180 Climbing Aus ATC (RADAR)
11:46PM -12.5265 130.9670 151° Southeast 110 127 3,000 240 Climbing Aus ATC (RADAR)
11:49PM -12.5774 130.9066 229° Southwest 149 171 4,100 180 Climbing Aus ATC (RADAR)
11:51PM -12.5955 130.8339 256° West 159 183 4,000 -60 Descending Aus ATC (RADAR)
11:52PM -12.6131 130.7647 255° West 160 184 4,000  Level Aus ATC (RADAR)
11:54PM -12.6256 130.7171 255° West 159 183 4,000  Level Aus ATC (RADAR)
11:55PM -12.6443 130.6426 256° West 164 189 4,000  Level Aus ATC (RADAR)
11:57PM -12.6648 130.5670 254° West 166 191 4,000  Level Aus ATC (RADAR)
11:58PM -12.6813 130.5025 255° West 165 190 4,000  Level Aus ATC (RADAR)
11:59PM -12.6942 130.4536 255° West 164 189 4,000 -60 Level Aus ATC (RADAR)
12:01AM -12.7098 130.3894 256° West 166 191 3,900  Descending Aus ATC (RADAR)
12:03AM -12.7305 130.3107 255° West 160 184 4,100  Climbing Aus ATC (RADAR)
12:05AM -12.7568 130.2042 256° West 161 185 4,000 -60 Descending Aus ATC (RADAR)
12:06AM -12.7737 130.1411 255° West 161 185 4,000  Level Aus ATC (RADAR)
12:08AM -12.7933 130.0629 256° West 161 185 4,000  Level Aus ATC (RADAR)
12:11AM -12.8203 129.9556 256° West 160 184 4,000  Level Aus ATC (RADAR)
12:12AM -12.8361 129.8930 255° West 160 184 4,000  Level Aus ATC (RADAR)
12:14AM -12.8541 129.8151 257° West 159 183 4,000  Level Aus ATC (RADAR)
12:16AM -12.8781 129.7032 258° West 160 184 4,000  Level Aus ATC (RADAR)
12:18AM -12.8916 129.6438 257° West 159 183 4,000  Level Aus ATC (RADAR)
12:19AM -12.9244 129.5711 245° Southwest 162 186 4,000  Level Aus ATC (RADAR)
12:22AM -12.9669 129.4611 248° West 160 184 4,000  Level Aus ATC (RADAR)
12:23AM -12.9781 129.4324 248° West 162 186 4,000  Level Aus ATC (RADAR)
12:26AM -13.0356 129.2779 67° East 4,000  Level Aus ATC (Calculated)
12:26AM -13.0356 129.2779 249° West 4,000  Level Aus ATC (Calculated)
12:28AM -13.0620 129.2068 249° West  Level FlightAware Approximate
12:29AM -13.0757 129.1700 249° West  Level FlightAware Approximate
12:30AM -13.0893 129.1332 249° West  Level FlightAware Approximate
12:31AM -13.1030 129.0964 249° West  Level FlightAware Approximate
12:32AM -13.1166 129.0596 249° West  Level FlightAware Approximate
12:33AM -13.1303 129.0228 249° West  Level FlightAware Approximate
12:34AM -13.1439 128.9860 249° West  Level FlightAware Approximate
12:35AM -13.1575 128.9491 249° West  Level FlightAware Approximate
12:36AM -13.1712 128.9123 249° West  Level FlightAware Approximate
12:37AM -13.1848 128.8755 249° West  Level FlightAware Approximate
12:38AM -13.1984 128.8387 249° West  Level FlightAware Approximate
12:39AM -13.2120 128.8018 249° West  Level FlightAware Approximate
12:40AM -13.2256 128.7650 249° West  Level FlightAware Approximate
12:41AM -13.2392 128.7281 249° West  Level FlightAware Approximate
12:42AM -13.2528 128.6913 249° West  Level FlightAware Approximate
12:43AM -13.2664 128.6544 249° West  Level FlightAware Approximate
12:44AM -13.2800 128.6176 249° West  Level FlightAware Approximate
12:45AM -13.2936 128.5807 249° West  Level FlightAware Approximate
12:46AM -13.3065 128.5435 249° West  Level Estimated
12:47AM -13.3201 128.5067 249° West  Level FlightAware Approximate
12:48AM -13.3337 128.4698 249° West  Level FlightAware Approximate
12:49AM -13.3472 128.4330 249° West  Level FlightAware Approximate
12:50AM -13.3608 128.3961 249° West  Level FlightAware Approximate
12:50AM -13.3608 128.3980 249° West 4,000  Level Aus ATC (Calculated)
12:52AM -13.3875 128.3254 249° West  Level FlightAware Approximate
12:53AM -13.4010 128.2885 249° West  Level FlightAware Approximate
12:54AM -13.4145 128.2516 249° West  Level FlightAware Approximate
12:54AM -13.4275 128.2164 249° West 4,000  Level Aus ATC (Calculated)
12:55AM -13.4608 128.1255 249° West 4,000  Level Aus ATC (Calculated)
12:57AM -13.4775 128.0798 249° West  Level FlightAware Approximate
12:58AM -13.4912 128.0423 249° West  Level FlightAware Approximate
12:59AM -13.5049 128.0047 249° West  Level FlightAware Approximate
01:00AM -13.5187 127.9672 249° West  Level FlightAware Approximate
01:01AM -13.5324 127.9297 249° West  Level FlightAware Approximate
01:02AM -13.5461 127.8921 249° West  Level FlightAware Approximate
01:03AM -13.5598 127.8546 249° West  Level FlightAware Approximate
01:04AM -13.5735 127.8170 249° West  Level FlightAware Approximate
01:05AM -13.5871 127.7795 249° West  Level FlightAware Approximate
01:06AM -13.6008 127.7419 249° West  Level FlightAware Approximate
01:07AM -13.6145 127.7044 249° West  Level FlightAware Approximate
01:08AM -13.6282 127.6668 249° West  Level FlightAware Approximate
01:09AM -13.6419 127.6292 249° West  Level FlightAware Approximate
01:10AM -13.6555 127.5916 249° West  Level FlightAware Approximate
01:11AM -13.6692 127.5540 249° West  Level FlightAware Approximate
01:12AM -13.6828 127.5165 250° West  Level FlightAware Approximate
01:13AM -13.6965 127.4789 250° West  Level FlightAware Approximate
01:14AM -13.7101 127.4413 250° West  Level FlightAware Approximate
01:15AM -13.7237 127.4037 250° West  Level FlightAware Approximate
01:16AM -13.7374 127.3661 250° West  Level FlightAware Approximate
01:17AM -13.7510 127.3285 250° West  Level FlightAware Approximate
01:18AM -13.7646 127.2908 250° West  Level FlightAware Approximate
01:19AM -13.7782 127.2532 250° West  Level FlightAware Approximate
01:20AM -13.7918 127.2156 250° West  Level FlightAware Approximate
01:21AM -13.8054 127.1780 250° West  Level FlightAware Approximate
01:22AM -13.8190 127.1404 250° West  Level FlightAware Approximate
01:23AM -13.8326 127.1027 250° West  Level FlightAware Approximate
01:24AM -13.8462 127.0651 250° West  Level FlightAware Approximate
01:25AM -13.8597 127.0274 250° West  Level FlightAware Approximate
01:26AM -13.8733 126.9898 250° West  Level FlightAware Approximate
01:27AM -13.8869 126.9521 250° West  Level FlightAware Approximate
01:28AM -13.9004 126.9145 250° West  Level FlightAware Approximate
01:28AM -13.8862 126.9540 250° West 500  Level Aus ATC (Calculated)
01:30AM -13.9122 126.8819 250° West  Level FlightAware Approximate
01:31AM -13.9255 126.8441 270° West  Level Estimated
01:32AM -13.9388 126.8064 270° West  Level Estimated
01:33AM -13.9521 126.7686 270° West  Level Estimated
01:34AM -13.9654 126.7308 270° West  Level Estimated
01:35AM -13.9787 126.6931 270° West  Level Estimated
01:36AM -13.9920 126.6553 270° West  Level Estimated
01:37AM -14.0053 126.6175 270° West  Level Estimated
01:38AM -14.0186 126.5798 270° West  Level Estimated
01:39AM -14.0319 126.5420 270° West  Level Estimated
01:40AM -14.0452 126.5042 270° West  Level Estimated
01:41AM -14.0584 126.4664 270° West  Level Estimated
01:42AM -14.0717 126.4286 270° West  Level Estimated
01:43AM -14.0850 126.3908 270° West  Level Estimated
01:44AM -14.0897 126.3807 270° West  Level FlightAware Approximate
01:45AM -14.0884 126.3810 270° West  Level Estimated
01:46AM -14.0897 126.3807 270° West  Level FlightAware Approximate
01:47AM -14.0884 126.3810 270° West  Level Estimated
01:48AM -14.0897 126.3807 270° West  Level FlightAware Approximate
01:49AM -14.0884 126.3810 270° West  Level Estimated
01:50AM -14.0897 126.3807 270° West  Level FlightAware Approximate
01:51AM -14.0884 126.3810 270° West  Level Estimated
01:52AM -14.0897 126.3807 270° West  Level FlightAware Approximate
01:53AM -14.0884 126.3810 270° West  Level Estimated
01:54AM -14.0897 126.3807 270° West  Level FlightAware Approximate
01:55AM -14.0884 126.3810 270° West  Level Estimated
01:56AM -14.0897 126.3807 270° West  Level FlightAware Approximate
01:57AM -14.0884 126.3810 270° West  Level Estimated
01:58AM -14.0897 126.3807 270° West  Level FlightAware Approximate